createdAt,value
2023-03-26T00:01:10.734Z,98063.53
2023-03-26T00:03:39.207Z,98067.56
2023-03-26T00:06:14.010Z,98064.25
2023-03-26T00:08:42.593Z,98055.13
2023-03-26T00:11:11.724Z,98056.53
2023-03-26T00:13:39.411Z,98053.19
2023-03-26T00:16:06.560Z,98054.84
2023-03-26T00:18:34.995Z,98058.44
2023-03-26T00:21:05.611Z,98045.03
2023-03-26T00:23:34.083Z,98057.00
2023-03-26T00:26:02.926Z,98050.00
2023-03-26T00:28:30.073Z,98058.00
2023-03-26T00:31:02.216Z,98050.59
2023-03-26T00:33:29.444Z,98048.19
2023-03-26T00:35:58.864Z,98058.22
2023-03-26T00:38:27.488Z,98059.44
2023-03-26T00:40:55.040Z,98066.38
2023-03-26T00:43:22.833Z,98074.28
2023-03-26T00:45:52.428Z,98064.72
2023-03-26T00:48:20.914Z,98056.09
2023-03-26T00:50:50.886Z,98053.22
2023-03-26T00:53:17.939Z,98047.56
2023-03-26T00:55:47.828Z,98044.94
2023-03-26T00:58:15.689Z,98044.00
2023-03-26T01:00:51.062Z,98047.06
2023-03-26T01:03:26.930Z,98040.59
2023-03-26T01:06:22.839Z,98033.53
2023-03-26T01:08:52.922Z,98042.03
2023-03-26T01:11:27.129Z,98042.59
2023-03-26T01:14:14.678Z,98048.59
2023-03-26T01:16:50.053Z,98038.06
2023-03-26T01:19:39.764Z,98032.78
2023-03-26T01:22:12.200Z,98050.78
2023-03-26T01:24:40.259Z,98045.75
2023-03-26T01:27:34.572Z,98058.78
2023-03-26T01:30:05.933Z,98042.38
2023-03-26T01:32:50.841Z,98054.59
2023-03-26T01:35:20.153Z,98067.06
2023-03-26T01:38:10.608Z,98053.91
2023-03-26T01:40:43.321Z,98052.72
2023-03-26T01:43:31.170Z,98053.47
2023-03-26T01:46:02.062Z,98052.50
2023-03-26T01:48:36.319Z,98051.94
2023-03-26T01:51:04.974Z,98044.59
2023-03-26T01:53:33.518Z,98049.03
2023-03-26T01:56:22.658Z,98043.53
2023-03-26T01:59:03.780Z,98041.03
2023-03-26T02:01:45.137Z,98035.75
2023-03-26T02:04:20.869Z,98039.56
2023-03-26T02:07:20.970Z,98044.25
2023-03-26T02:09:55.349Z,98040.78
2023-03-26T02:12:22.825Z,98043.88
2023-03-26T02:14:49.843Z,98044.38
2023-03-26T02:17:16.832Z,98043.16
2023-03-26T02:19:43.514Z,98029.44
2023-03-26T02:22:11.402Z,98024.06
2023-03-26T02:24:40.850Z,98033.13
2023-03-26T02:27:12.429Z,98029.81
2023-03-26T02:29:40.615Z,98016.16
2023-03-26T02:32:08.652Z,98021.44
2023-03-26T02:34:36.812Z,98002.56
2023-03-26T02:37:03.557Z,98006.41
2023-03-26T02:39:30.257Z,98006.41
2023-03-26T02:41:56.839Z,98004.50
2023-03-26T02:44:23.588Z,98000.56
2023-03-26T02:46:50.499Z,98002.09
2023-03-26T02:49:17.479Z,97992.28
2023-03-26T02:51:44.181Z,97992.53
2023-03-26T02:54:11.044Z,97996.84
2023-03-26T02:56:37.879Z,97990.38
2023-03-26T02:59:04.641Z,97998.16
2023-03-26T03:01:34.958Z,97998.03
2023-03-26T03:04:04.331Z,97997.94
2023-03-26T03:06:32.510Z,97990.63
2023-03-26T03:08:59.235Z,97997.78
2023-03-26T03:11:25.887Z,97998.63
2023-03-26T03:13:54.078Z,98001.38
2023-03-26T03:16:20.992Z,98000.06
2023-03-26T03:18:54.339Z,97994.66
2023-03-26T03:21:21.977Z,97986.66
2023-03-26T03:23:48.824Z,97988.44
2023-03-26T03:26:21.754Z,97986.28
2023-03-26T03:28:49.670Z,97987.94
2023-03-26T03:31:18.001Z,97989.63
2023-03-26T03:33:46.456Z,97992.97
2023-03-26T03:36:20.828Z,97988.56
2023-03-26T03:38:49.984Z,97987.56
2023-03-26T03:41:18.636Z,97979.56
2023-03-26T03:43:45.783Z,97978.88
2023-03-26T03:46:12.425Z,97980.50
2023-03-26T03:48:39.216Z,97968.91
2023-03-26T03:51:06.382Z,97974.41
2023-03-26T03:53:37.162Z,97978.25
2023-03-26T03:56:10.179Z,97974.56
2023-03-26T03:58:37.513Z,97970.25
2023-03-26T04:01:04.734Z,97967.84
2023-03-26T04:03:34.132Z,97968.59
2023-03-26T04:06:01.573Z,97976.47
2023-03-26T04:08:28.248Z,97964.88
2023-03-26T04:10:54.988Z,97965.72
2023-03-26T04:13:21.672Z,97963.09
2023-03-26T04:15:48.457Z,97975.03
2023-03-26T04:18:15.321Z,97963.28
2023-03-26T04:20:47.523Z,97960.28
2023-03-26T04:23:15.881Z,97960.41
2023-03-26T04:25:48.512Z,97959.44
2023-03-26T04:28:28.815Z,97959.56
2023-03-26T04:30:57.120Z,97953.47
2023-03-26T04:33:25.113Z,97958.72
2023-03-26T04:35:52.244Z,97954.31
2023-03-26T04:38:18.998Z,97953.22
2023-03-26T04:40:48.674Z,97950.59
2023-03-26T04:43:18.207Z,97953.00
2023-03-26T04:45:45.955Z,97947.00
2023-03-26T04:48:15.692Z,97940.78
2023-03-26T04:50:44.164Z,97937.22
2023-03-26T04:53:16.753Z,97922.50
2023-03-26T04:56:11.935Z,97922.50
2023-03-26T04:58:39.992Z,97922.13
2023-03-26T05:01:10.253Z,97913.53
2023-03-26T05:03:39.270Z,97921.22
2023-03-26T05:06:06.257Z,97914.06
2023-03-26T05:08:32.977Z,97921.47
2023-03-26T05:10:59.684Z,97920.09
2023-03-26T05:13:26.306Z,97921.06
2023-03-26T05:15:53.049Z,97920.34
2023-03-26T05:18:19.716Z,97919.38
2023-03-26T05:20:46.567Z,97920.81
2023-03-26T05:23:13.513Z,97915.47
2023-03-26T05:25:40.520Z,97917.47
2023-03-26T05:28:07.188Z,97910.31
2023-03-26T05:30:33.985Z,97907.91
2023-03-26T05:33:00.802Z,97910.81
2023-03-26T05:35:27.556Z,97912.25
2023-03-26T05:37:54.198Z,97909.97
2023-03-26T05:40:21.443Z,97918.97
2023-03-26T05:42:48.181Z,97917.06
2023-03-26T05:45:15.634Z,97916.78
2023-03-26T05:47:42.573Z,97914.03
2023-03-26T05:50:10.670Z,97907.00
2023-03-26T05:52:37.589Z,97909.84
2023-03-26T05:55:04.586Z,97907.84
2023-03-26T05:57:32.101Z,97904.09
2023-03-26T05:59:58.869Z,97898.59
2023-03-26T06:02:25.539Z,97897.78
2023-03-26T06:04:52.716Z,97895.59
2023-03-26T06:07:20.200Z,97885.91
2023-03-26T06:09:47.116Z,97881.16
2023-03-26T06:12:14.431Z,97889.50
2023-03-26T06:14:42.957Z,97884.63
2023-03-26T06:17:10.730Z,97868.72
2023-03-26T06:19:37.697Z,97873.72
2023-03-26T06:22:05.497Z,97876.94
2023-03-26T06:24:33.482Z,97865.31
2023-03-26T06:27:00.471Z,97867.22
2023-03-26T06:29:27.286Z,97860.72
2023-03-26T06:31:54.028Z,97865.97
2023-03-26T06:34:21.014Z,97861.16
2023-03-26T06:36:48.911Z,97863.41
2023-03-26T06:39:16.115Z,97859.97
2023-03-26T06:41:43.046Z,97864.25
2023-03-26T06:44:11.236Z,97864.00
2023-03-26T06:46:39.159Z,97858.25
2023-03-26T06:49:06.103Z,97851.06
2023-03-26T06:51:32.818Z,97850.56
2023-03-26T06:53:59.444Z,97847.13
2023-03-26T06:56:26.269Z,97852.28
2023-03-26T06:58:52.938Z,97852.59
2023-03-26T07:01:19.752Z,97849.84
2023-03-26T07:03:46.583Z,97852.50
2023-03-26T07:06:13.371Z,97845.88
2023-03-26T07:08:40.018Z,97839.69
2023-03-26T07:11:06.903Z,97837.09
2023-03-26T07:13:33.625Z,97827.16
2023-03-26T07:16:00.280Z,97823.16
2023-03-26T07:18:27.075Z,97829.81
2023-03-26T07:20:54.212Z,97825.38
2023-03-26T07:23:21.448Z,97826.00
2023-03-26T07:25:48.692Z,97818.53
2023-03-26T07:28:18.395Z,97812.97
2023-03-26T07:31:07.156Z,97804.09
2023-03-26T07:33:58.764Z,97806.59
2023-03-26T07:36:32.642Z,97806.88
2023-03-26T07:39:05.375Z,97804.50
2023-03-26T07:41:51.269Z,97793.81
2023-03-26T07:44:36.740Z,97801.06
2023-03-26T07:47:18.173Z,97796.63
2023-03-26T07:49:45.018Z,97797.38
2023-03-26T07:52:12.012Z,97795.75
2023-03-26T07:54:59.079Z,97786.25
2023-03-26T07:57:53.299Z,97785.81
2023-03-26T08:00:26.393Z,97780.72
2023-03-26T08:03:30.477Z,97772.50
2023-03-26T08:06:03.026Z,97770.66
2023-03-26T08:09:04.740Z,97767.56
2023-03-26T08:11:57.187Z,97761.19
2023-03-26T08:14:45.655Z,97771.19
2023-03-26T08:17:12.183Z,97771.47
2023-03-26T08:19:38.870Z,97772.34
2023-03-26T08:22:20.855Z,97771.66
2023-03-26T08:25:25.557Z,97765.53
2023-03-26T08:28:04.367Z,97756.75
2023-03-26T08:30:31.350Z,97757.28
2023-03-26T08:33:03.174Z,97760.31
2023-03-26T08:35:30.105Z,97745.00
2023-03-26T08:37:56.804Z,97745.25
2023-03-26T08:41:01.676Z,97737.88
2023-03-26T08:44:09.817Z,97734.16
2023-03-26T08:47:00.036Z,97735.88
2023-03-26T08:49:56.690Z,97735.81
2023-03-26T08:52:47.710Z,97731.97
2023-03-26T08:55:42.082Z,97727.66
2023-03-26T08:58:46.192Z,97728.69
2023-03-26T09:01:31.488Z,97730.47
2023-03-26T09:04:22.987Z,97728.03
2023-03-26T09:07:17.157Z,97723.38
2023-03-26T09:10:17.089Z,97723.47
2023-03-26T09:12:58.876Z,97714.28
2023-03-26T09:15:28.597Z,97714.75
2023-03-26T09:18:23.183Z,97710.16
2023-03-26T09:21:27.415Z,97706.13
2023-03-26T09:24:31.741Z,97701.16
2023-03-26T09:27:23.656Z,97697.56
2023-03-26T09:29:50.425Z,97692.38
2023-03-26T09:32:25.921Z,97693.13
2023-03-26T09:35:13.834Z,97690.13
2023-03-26T09:37:56.704Z,97688.34
2023-03-26T09:40:37.219Z,97674.13
2023-03-26T09:43:24.148Z,97687.56
2023-03-26T09:46:24.897Z,97677.97
2023-03-26T09:49:02.739Z,97669.66
2023-03-26T09:51:57.234Z,97679.16
2023-03-26T09:54:44.478Z,97674.78
2023-03-26T09:57:20.489Z,97668.66
2023-03-26T10:00:07.121Z,97671.81
2023-03-26T10:03:14.737Z,97668.19
2023-03-26T10:06:19.372Z,97670.03
2023-03-26T10:09:17.677Z,97671.53
2023-03-26T10:12:06.063Z,97670.88
2023-03-26T10:15:00.293Z,97669.19
2023-03-26T10:17:52.972Z,97660.50
2023-03-26T10:20:48.962Z,97664.88
2023-03-26T10:23:26.023Z,97656.66
2023-03-26T10:26:11.189Z,97655.38
2023-03-26T10:29:01.619Z,97663.97
2023-03-26T10:31:59.965Z,97655.66
2023-03-26T10:34:44.828Z,97657.59
2023-03-26T10:37:19.695Z,97662.53
2023-03-26T10:40:02.084Z,97663.38
2023-03-26T10:42:54.815Z,97662.97
2023-03-26T10:45:48.240Z,97656.41
2023-03-26T10:48:53.126Z,97657.19
2023-03-26T10:51:39.891Z,97652.78
2023-03-26T10:54:22.136Z,97647.22
2023-03-26T10:56:52.450Z,97651.34
2023-03-26T10:59:19.323Z,97643.63
2023-03-26T11:02:41.595Z,97651.28
2023-03-26T11:05:36.117Z,97648.41
2023-03-26T11:08:12.303Z,97642.94
2023-03-26T11:11:05.316Z,97637.56
2023-03-26T11:13:43.430Z,97639.78
2023-03-26T11:16:15.589Z,97639.44
2023-03-26T11:18:56.050Z,97639.75
2023-03-26T11:21:32.719Z,97641.25
2023-03-26T11:24:14.301Z,97633.84
2023-03-26T11:26:49.051Z,97633.88
2023-03-26T11:29:32.134Z,97628.25
2023-03-26T11:32:17.541Z,97626.22
2023-03-26T11:34:59.055Z,97632.44
2023-03-26T11:37:41.652Z,97632.16
2023-03-26T11:40:21.515Z,97630.63
2023-03-26T11:42:51.526Z,97630.50
2023-03-26T11:45:26.327Z,97621.69
2023-03-26T11:47:58.844Z,97622.00
2023-03-26T11:50:30.579Z,97624.47
2023-03-26T11:53:02.184Z,97620.84
2023-03-26T11:55:30.567Z,97625.34
2023-03-26T11:58:00.130Z,97620.25
2023-03-26T12:00:28.696Z,97627.44
2023-03-26T12:03:00.446Z,97626.03
2023-03-26T12:05:36.616Z,97624.31
2023-03-26T12:08:18.576Z,97615.28
2023-03-26T12:10:58.568Z,97617.44
2023-03-26T12:13:59.450Z,97610.81
2023-03-26T12:16:27.578Z,97611.16
2023-03-26T12:19:00.379Z,97606.31
2023-03-26T12:21:27.216Z,97609.91
2023-03-26T12:23:56.419Z,97603.94
2023-03-26T12:26:41.425Z,97611.41
2023-03-26T12:29:16.673Z,97605.09
2023-03-26T12:32:04.953Z,97607.91
2023-03-26T12:34:37.744Z,97606.00
2023-03-26T12:37:07.208Z,97604.88
2023-03-26T12:40:11.855Z,97607.88
2023-03-26T12:44:49.408Z,97598.22
2023-03-26T12:45:14.082Z,97601.94
2023-03-26T12:48:01.350Z,97605.78
2023-03-26T12:51:01.268Z,97601.06
2023-03-26T12:53:49.327Z,97595.63
2023-03-26T12:56:49.922Z,97604.19
2023-03-26T13:00:09.487Z,97595.63
2023-03-26T13:02:39.110Z,97593.06
2023-03-26T13:05:24.698Z,97585.66
2023-03-26T13:08:36.091Z,97586.56
2023-03-26T13:11:02.708Z,97578.69
2023-03-26T13:13:46.686Z,97575.50
2023-03-26T13:16:46.572Z,97573.97
2023-03-26T13:19:20.722Z,97575.75
2023-03-26T13:21:54.785Z,97561.00
2023-03-26T13:24:30.855Z,97556.59
2023-03-26T13:27:28.485Z,97542.94
2023-03-26T13:29:56.871Z,97542.03
2023-03-26T13:32:30.505Z,97539.78
2023-03-26T13:35:06.371Z,97538.53
2023-03-26T13:37:39.070Z,97532.03
2023-03-26T13:40:40.677Z,97527.00
2023-03-26T13:43:38.065Z,97519.06
2023-03-26T13:46:14.000Z,97516.03
2023-03-26T13:48:53.012Z,97507.63
2023-03-26T13:51:44.019Z,97503.47
2023-03-26T13:54:13.884Z,97496.78
2023-03-26T13:56:46.449Z,97505.16
2023-03-26T13:59:20.778Z,97501.00
2023-03-26T14:01:54.599Z,97495.44
2023-03-26T14:04:49.877Z,97498.22
2023-03-26T14:07:23.610Z,97492.25
2023-03-26T14:10:07.301Z,97484.78
2023-03-26T14:12:56.985Z,97479.19
2023-03-26T14:15:50.377Z,97484.06
2023-03-26T14:19:12.333Z,97478.31
2023-03-26T14:22:08.438Z,97484.94
2023-03-26T14:24:54.158Z,97478.59
2023-03-26T14:27:42.669Z,97479.19
2023-03-26T14:30:12.364Z,97485.47
2023-03-26T14:33:17.820Z,97477.94
2023-03-26T14:35:57.124Z,97469.09
2023-03-26T14:38:35.004Z,97477.03
2023-03-26T14:41:20.425Z,97472.22
2023-03-26T14:44:08.787Z,97471.22
2023-03-26T14:46:38.488Z,97461.13
2023-03-26T14:49:26.020Z,97459.69
2023-03-26T14:52:02.272Z,97457.56
2023-03-26T14:54:33.466Z,97456.94
2023-03-26T14:57:02.877Z,97453.16
2023-03-26T15:00:03.367Z,97455.78
2023-03-26T15:02:42.039Z,97446.00
2023-03-26T15:05:27.083Z,97448.50
2023-03-26T15:08:33.565Z,97453.50
2023-03-26T15:11:45.629Z,97447.91
2023-03-26T15:14:30.619Z,97443.16
2023-03-26T15:17:25.981Z,97450.59
2023-03-26T15:20:18.941Z,97446.22
2023-03-26T15:23:33.859Z,97445.31
2023-03-26T15:26:41.728Z,97439.41
2023-03-26T15:29:21.738Z,97434.44
2023-03-26T15:32:12.579Z,97438.78
2023-03-26T15:35:20.200Z,97432.38
2023-03-26T15:38:23.940Z,97432.59
2023-03-26T15:41:08.673Z,97430.09
2023-03-26T15:46:38.218Z,97431.63
2023-03-26T15:49:31.388Z,97435.78
2023-03-26T15:52:53.803Z,97431.78
2023-03-26T15:55:51.509Z,97430.53
2023-03-26T15:58:27.381Z,97432.72
2023-03-26T16:01:18.911Z,97432.66
2023-03-26T16:04:02.471Z,97437.44
2023-03-26T16:06:48.249Z,97430.09
2023-03-26T16:10:04.653Z,97430.09
2023-03-26T16:13:15.855Z,97432.72
2023-03-26T16:15:44.151Z,97433.50
2023-03-26T16:18:12.045Z,97442.94
2023-03-26T16:21:04.402Z,97445.38
2023-03-26T16:23:53.747Z,97443.44
2023-03-26T16:26:27.657Z,97444.28
2023-03-26T16:28:54.195Z,97444.75
2023-03-26T16:31:37.064Z,97438.78
2023-03-26T16:34:07.181Z,97446.00
2023-03-26T16:36:37.885Z,97432.78
2023-03-26T16:39:04.973Z,97441.13
2023-03-26T16:42:05.615Z,97450.81
2023-03-26T16:44:42.289Z,97439.56
2023-03-26T16:47:50.465Z,97449.44
2023-03-26T16:50:32.688Z,97446.41
2023-03-26T16:53:47.721Z,97452.38
2023-03-26T16:56:33.557Z,97449.38
2023-03-26T16:59:07.747Z,97450.63
2023-03-26T17:01:48.248Z,97448.75
2023-03-26T17:04:27.468Z,97455.31
2023-03-26T17:07:04.153Z,97458.03
2023-03-26T17:09:51.997Z,97454.69
2023-03-26T17:12:44.369Z,97456.13
2023-03-26T17:15:42.456Z,97462.50
2023-03-26T17:18:33.624Z,97471.00
2023-03-26T17:21:28.990Z,97468.13
2023-03-26T17:24:32.237Z,97472.56
2023-03-26T17:27:16.853Z,97468.97
2023-03-26T17:30:00.557Z,97470.94
2023-03-26T17:33:07.250Z,97471.13
2023-03-26T17:35:41.100Z,97474.44
2023-03-26T17:38:34.143Z,97469.91
2023-03-26T17:41:00.806Z,97468.22
2023-03-26T17:43:50.019Z,97482.66
2023-03-26T17:46:43.718Z,97477.28
2023-03-26T17:49:20.411Z,97481.34
2023-03-26T17:52:15.324Z,97476.19
2023-03-26T17:54:49.263Z,97481.59
2023-03-26T17:57:22.324Z,97476.47
2023-03-26T17:59:53.261Z,97477.06
2023-03-26T18:02:27.849Z,97471.84
2023-03-26T18:04:55.900Z,97482.94
2023-03-26T18:07:46.772Z,97483.78
2023-03-26T18:10:19.390Z,97484.34
2023-03-26T18:12:56.830Z,97485.06
2023-03-26T18:15:36.724Z,97487.44
2023-03-26T18:18:32.006Z,97490.78
2023-03-26T18:21:03.669Z,97497.56
2023-03-26T18:23:36.800Z,97490.63
2023-03-26T18:26:16.625Z,97500.34
2023-03-26T18:29:04.611Z,97500.91
2023-03-26T18:31:31.778Z,97499.25
2023-03-26T18:34:06.757Z,97500.59
2023-03-26T18:36:33.396Z,97505.59
2023-03-26T18:39:00.317Z,97506.84
2023-03-26T18:41:41.833Z,97502.28
2023-03-26T18:44:14.759Z,97504.22
2023-03-26T18:46:42.767Z,97510.31
2023-03-26T18:49:13.402Z,97508.66
2023-03-26T18:51:54.059Z,97510.31
2023-03-26T18:54:24.776Z,97519.44
2023-03-26T18:56:52.805Z,97523.22
2023-03-26T18:59:28.219Z,97524.31
2023-03-26T19:01:57.776Z,97518.50
2023-03-26T19:04:27.161Z,97527.81
2023-03-26T19:06:55.939Z,97525.44
2023-03-26T19:09:31.684Z,97535.72
2023-03-26T19:12:08.651Z,97529.19
2023-03-26T19:14:57.620Z,97537.25
2023-03-26T19:17:28.606Z,97542.06
2023-03-26T19:19:57.410Z,97541.41
2023-03-26T19:22:25.312Z,97539.59
2023-03-26T19:24:57.867Z,97549.16
2023-03-26T19:27:24.809Z,97549.44
2023-03-26T19:29:51.744Z,97552.19
2023-03-26T19:32:27.977Z,97557.75
2023-03-26T19:34:54.728Z,97555.25
2023-03-26T19:37:29.894Z,97556.91
2023-03-26T19:40:12.855Z,97561.91
2023-03-26T19:42:43.774Z,97558.97
2023-03-26T19:45:23.234Z,97567.00
2023-03-26T19:48:03.458Z,97560.47
2023-03-26T19:50:42.558Z,97566.88
2023-03-26T19:53:37.433Z,97566.44
2023-03-26T19:56:14.621Z,97566.59
2023-03-26T19:58:42.598Z,97572.69
2023-03-26T20:01:21.807Z,97574.47
2023-03-26T20:03:52.832Z,97577.53
2023-03-26T20:06:30.737Z,97572.97
2023-03-26T20:09:05.014Z,97582.66
2023-03-26T20:11:36.643Z,97584.16
2023-03-26T20:14:12.714Z,97582.66
2023-03-26T20:16:40.060Z,97591.38
2023-03-26T20:19:08.953Z,97585.97
2023-03-26T20:21:38.024Z,97593.56
2023-03-26T20:24:16.107Z,97598.50
2023-03-26T20:26:43.737Z,97601.41
2023-03-26T20:29:11.733Z,97603.09
2023-03-26T20:31:41.682Z,97606.94
2023-03-26T20:34:23.496Z,97616.06
2023-03-26T20:36:55.333Z,97620.78
2023-03-26T20:39:23.770Z,97625.44
2023-03-26T20:41:54.782Z,97630.72
2023-03-26T20:44:22.585Z,97626.69
2023-03-26T20:46:50.177Z,97634.84
2023-03-26T20:49:18.212Z,97636.50
2023-03-26T20:51:46.776Z,97642.47
2023-03-26T20:54:21.528Z,97639.78
2023-03-26T20:56:49.221Z,97649.03
2023-03-26T20:59:22.374Z,97647.88
2023-03-26T21:01:50.423Z,97648.59
2023-03-26T21:04:17.998Z,97657.03
2023-03-26T21:06:45.356Z,97664.38
2023-03-26T21:09:17.807Z,97660.78
2023-03-26T21:12:02.304Z,97660.19
2023-03-26T21:14:44.247Z,97663.66
2023-03-26T21:17:22.241Z,97668.66
2023-03-26T21:19:49.634Z,97673.81
2023-03-26T21:22:29.949Z,97673.22
2023-03-26T21:25:19.815Z,97683.16
2023-03-26T21:28:19.494Z,97691.75
2023-03-26T21:31:06.651Z,97700.03
2023-03-26T21:33:33.357Z,97704.44
2023-03-26T21:36:00.427Z,97700.31
2023-03-26T21:38:27.700Z,97705.81
2023-03-26T21:40:58.789Z,97712.97
2023-03-26T21:43:26.155Z,97713.47
2023-03-26T21:45:57.471Z,97720.88
2023-03-26T21:48:24.492Z,97727.13
2023-03-26T21:50:51.453Z,97739.53
2023-03-26T21:53:18.417Z,97739.81
2023-03-26T21:56:17.282Z,97740.44
2023-03-26T21:58:59.034Z,97747.69
2023-03-26T22:01:31.662Z,97752.88
2023-03-26T22:04:06.205Z,97758.38
2023-03-26T22:06:38.311Z,97763.88
2023-03-26T22:09:05.331Z,97773.28
2023-03-26T22:11:31.948Z,97770.56
2023-03-26T22:13:59.398Z,97778.69
2023-03-26T22:16:26.186Z,97794.69
2023-03-26T22:18:53.860Z,97798.63
2023-03-26T22:21:20.795Z,97806.63
2023-03-26T22:23:52.750Z,97803.91
2023-03-26T22:26:24.349Z,97812.94
2023-03-26T22:28:51.098Z,97815.22
2023-03-26T22:31:18.262Z,97820.00
2023-03-26T22:33:45.002Z,97823.56
2023-03-26T22:36:22.667Z,97830.47
2023-03-26T22:38:55.219Z,97839.56
2023-03-26T22:41:22.459Z,97838.00
2023-03-26T22:43:52.138Z,97836.47
2023-03-26T22:46:19.572Z,97840.25
2023-03-26T22:48:48.270Z,97854.09
2023-03-26T22:51:15.454Z,97855.88
2023-03-26T22:53:42.097Z,97859.56
2023-03-26T22:56:09.472Z,97872.56
2023-03-26T22:58:36.487Z,97882.00
2023-03-26T23:01:15.065Z,97879.59
2023-03-26T23:03:41.651Z,97884.84
2023-03-26T23:06:11.047Z,97889.38
2023-03-26T23:08:38.753Z,97897.59
2023-03-26T23:11:19.312Z,97900.34
2023-03-26T23:13:47.829Z,97897.47
2023-03-26T23:16:15.545Z,97908.91
2023-03-26T23:18:42.376Z,97910.00
2023-03-26T23:21:20.435Z,97911.28
2023-03-26T23:23:48.340Z,97925.22
2023-03-26T23:26:15.655Z,97928.19
2023-03-26T23:28:43.370Z,97934.63
2023-03-26T23:31:12.506Z,97940.09
2023-03-26T23:33:46.615Z,97942.22
2023-03-26T23:36:17.794Z,97952.09
2023-03-26T23:38:49.620Z,97956.50
2023-03-26T23:41:19.385Z,97960.09
2023-03-26T23:43:55.518Z,97960.09
2023-03-26T23:46:24.779Z,97965.53
2023-03-26T23:48:52.190Z,97969.00
2023-03-26T23:51:20.304Z,97973.84
2023-03-26T23:53:47.678Z,97978.97
2023-03-26T23:56:15.403Z,97993.38
2023-03-26T23:58:42.238Z,97994.13
